Time;durP1;ratioP1;P1;durP2;ratioP2;P2;SDS_P1;SDS_P2;PMS_P1;PMS_P2;Temp;Humidity;BMP_temperature;BMP_pressure;BME280_temperature;BME280_humidity;BME280_pressure;Samples;Min_cycle;Max_cycle;Signal;HPM_P1;HPM_P2
2021/09/09 00:01:21;;;;;;;17.92;11.75;;;;;;;15.20;58.37;98901.09;4966779;28;20411;-67
2021/09/09 00:03:46;;;;;;;19.77;11.00;;;;;;;15.20;58.34;98895.56;4967769;28;20042;-67
2021/09/09 00:06:11;;;;;;;18.05;11.18;;;;;;;15.15;58.11;98895.69;4968213;28;20116;-66
2021/09/09 00:08:37;;;;;;;18.63;11.25;;;;;;;15.08;58.12;98898.91;4967752;28;20475;-67
2021/09/09 00:11:02;;;;;;;16.25;10.85;;;;;;;15.08;58.16;98898.13;4982026;28;20066;-66
2021/09/09 00:13:28;;;;;;;19.05;10.77;;;;;;;15.04;58.47;98897.91;4966540;28;20031;-66
2021/09/09 00:15:53;;;;;;;19.33;11.30;;;;;;;15.00;57.72;98894.97;4968758;28;20023;-66
2021/09/09 00:18:19;;;;;;;18.65;11.32;;;;;;;14.96;58.01;98893.13;4968995;28;20054;-67
2021/09/09 00:20:44;;;;;;;18.95;11.43;;;;;;;14.89;58.21;98893.59;4968427;28;20033;-67
2021/09/09 00:23:11;;;;;;;20.13;11.55;;;;;;;14.82;58.23;98896.81;4969096;28;20042;-67
2021/09/09 00:25:36;;;;;;;18.98;11.55;;;;;;;14.77;58.21;98890.56;4967978;28;20027;-66
2021/09/09 00:28:02;;;;;;;18.90;10.73;;;;;;;14.71;58.06;98887.94;4967248;28;20038;-66
2021/09/09 00:30:27;;;;;;;19.45;11.77;;;;;;;14.63;58.34;98890.59;4968322;28;20106;-66
2021/09/09 00:32:53;;;;;;;19.13;11.20;;;;;;;14.59;58.30;98890.44;4968342;28;20133;-67
2021/09/09 00:35:18;;;;;;;18.45;11.25;;;;;;;14.51;58.30;98885.66;4967682;28;20054;-67
2021/09/09 00:37:43;;;;;;;18.20;10.68;;;;;;;14.47;58.55;98890.94;4968005;28;20026;-67
2021/09/09 00:40:09;;;;;;;20.95;11.50;;;;;;;14.43;58.60;98889.97;4965624;28;20114;-67
2021/09/09 00:42:35;;;;;;;20.92;11.75;;;;;;;14.40;58.67;98896.09;4965705;28;20391;-66
2021/09/09 00:45:00;;;;;;;17.70;11.30;;;;;;;14.37;58.53;98888.44;4966327;28;20037;-66
2021/09/09 00:47:26;;;;;;;19.05;11.50;;;;;;;14.33;58.66;98890.19;4965739;28;20058;-66
2021/09/09 00:49:51;;;;;;;19.48;12.05;;;;;;;14.32;58.93;98885.81;4965315;28;20026;-67
2021/09/09 00:52:17;;;;;;;21.88;12.52;;;;;;;14.26;58.80;98883.16;4965504;28;20030;-67
2021/09/09 00:54:45;;;;;;;19.05;12.32;;;;;;;14.21;58.36;98882.47;4970988;28;20418;-67
2021/09/09 00:57:11;;;;;;;21.02;12.65;;;;;;;14.18;58.82;98888.59;4972531;28;20035;-68
2021/09/09 00:59:37;;;;;;;22.73;13.25;;;;;;;14.13;58.80;98887.59;4969361;28;20099;-67
2021/09/09 01:02:04;;;;;;;21.00;12.55;;;;;;;14.13;58.87;98890.34;4970050;28;20118;-68
2021/09/09 01:04:29;;;;;;;25.65;15.00;;;;;;;14.11;58.79;98886.25;4970082;28;20030;-67
2021/09/09 01:06:56;;;;;;;26.55;14.70;;;;;;;14.07;58.88;98890.75;4969561;28;20030;-67
2021/09/09 01:09:22;;;;;;;28.17;15.45;;;;;;;14.03;59.11;98889.75;4970317;28;20475;-67
2021/09/09 01:11:47;;;;;;;25.50;14.00;;;;;;;14.01;59.14;98889.25;4970028;28;20071;-68
2021/09/09 01:14:15;;;;;;;23.23;13.27;;;;;;;13.98;59.15;98894.25;4968612;28;20042;-67
2021/09/09 01:16:41;;;;;;;20.65;12.95;;;;;;;13.96;59.11;98892.91;4969503;28;20534;-68
2021/09/09 01:19:08;;;;;;;22.38;13.52;;;;;;;13.92;59.42;98898.25;4968808;28;20023;-68
2021/09/09 01:21:34;;;;;;;26.48;14.63;;;;;;;13.90;59.38;98894.97;4967792;28;20110;-67
2021/09/09 01:24:02;;;;;;;27.67;13.82;;;;;;;13.84;59.36;98901.72;4969235;28;20107;-67
2021/09/09 01:26:29;;;;;;;24.58;13.95;;;;;;;13.81;59.50;98896.81;4970602;28;20027;-68
2021/09/09 01:28:57;;;;;;;24.00;13.68;;;;;;;13.78;59.54;98897.41;4969512;28;20034;-68
2021/09/09 01:31:24;;;;;;;20.30;12.20;;;;;;;13.74;59.58;98888.13;4968194;28;20065;-68
2021/09/09 01:33:56;;;;;;;20.15;12.13;;;;;;;13.73;59.65;98892.84;4969755;28;20038;-68
2021/09/09 01:36:22;;;;;;;19.70;12.65;;;;;;;13.72;59.58;98885.69;4965902;28;20045;-67
2021/09/09 01:38:48;;;;;;;18.85;11.70;;;;;;;13.74;59.77;98891.72;4968819;28;20076;-67
2021/09/09 01:41:13;;;;;;;18.55;11.45;;;;;;;13.74;59.83;98891.72;4965317;28;20467;-68
2021/09/09 01:43:39;;;;;;;16.75;11.75;;;;;;;13.75;59.89;98900.78;4965757;28;20027;-68
2021/09/09 01:46:04;;;;;;;19.33;11.85;;;;;;;13.74;60.05;98896.41;4966771;28;20043;-68
2021/09/09 01:48:30;;;;;;;15.82;11.23;;;;;;;13.73;59.99;98898.34;4965550;28;20026;-67
2021/09/09 01:50:55;;;;;;;17.80;11.93;;;;;;;13.73;59.77;98894.75;4966862;28;20098;-68
2021/09/09 01:53:21;;;;;;;18.25;11.65;;;;;;;13.68;59.96;98893.75;4965566;28;20066;-68
2021/09/09 01:55:46;;;;;;;17.88;11.57;;;;;;;13.67;59.97;98896.81;4966347;28;20035;-68
2021/09/09 01:58:11;;;;;;;19.63;12.65;;;;;;;13.65;60.16;98888.84;4959026;28;20035;-67
2021/09/09 02:00:37;;;;;;;17.10;12.07;;;;;;;13.62;59.98;98897.75;4963261;28;20148;-67
2021/09/09 02:03:02;;;;;;;17.00;11.75;;;;;;;13.62;59.91;98891.41;4964039;28;20038;-66
2021/09/09 02:05:28;;;;;;;18.10;12.10;;;;;;;13.55;60.14;98897.31;4967910;28;20386;-66
2021/09/09 02:07:53;;;;;;;20.10;13.02;;;;;;;13.53;60.26;98900.38;4968542;28;20560;-66
2021/09/09 02:10:21;;;;;;;18.42;11.90;;;;;;;13.51;60.42;98901.81;4968960;28;20066;-67
2021/09/09 02:12:48;;;;;;;21.08;12.57;;;;;;;13.51;60.42;98901.81;4968274;28;20015;-67
2021/09/09 02:15:14;;;;;;;17.70;12.43;;;;;;;13.45;60.40;98906.59;4966194;28;20042;-68
2021/09/09 02:17:39;;;;;;;17.40;12.38;;;;;;;13.39;60.50;98897.56;4966436;28;20030;-67
2021/09/09 02:20:09;;;;;;;19.10;11.98;;;;;;;13.37;60.45;98910.84;4964964;28;20062;-67
2021/09/09 02:22:34;;;;;;;;;;;;;;;13.31;60.23;98908.50;4967854;28;20030;-67
2021/09/09 02:25:00;;;;;;;18.90;11.85;;;;;;;13.29;60.58;98905.22;4965199;28;19913;-67
2021/09/09 02:27:26;;;;;;;21.20;12.50;;;;;;;13.25;60.81;98905.00;4966926;28;20117;-67
2021/09/09 02:29:51;;;;;;;17.30;11.68;;;;;;;13.25;60.60;98907.75;4963158;28;20031;-68
2021/09/09 02:32:16;;;;;;;18.50;12.48;;;;;;;13.27;60.96;98899.19;4964865;28;20028;-68
2021/09/09 02:34:42;;;;;;;21.17;12.40;;;;;;;13.28;60.88;98898.88;4964994;28;20074;-68
2021/09/09 02:37:08;;;;;;;16.80;11.73;;;;;;;13.27;61.01;98902.75;4963247;28;20031;-67
2021/09/09 02:39:33;;;;;;;20.27;12.05;;;;;;;13.28;60.88;98898.88;4961743;28;20035;-67
2021/09/09 02:41:59;;;;;;;18.33;12.02;;;;;;;13.28;61.09;98904.38;4967032;28;20050;-67
2021/09/09 02:44:24;;;;;;;18.42;12.13;;;;;;;13.25;61.01;98897.56;4968078;28;20118;-68
2021/09/09 02:46:50;;;;;;;18.17;11.73;;;;;;;13.23;60.75;98899.00;4967881;28;20034;-68
2021/09/09 02:49:15;;;;;;;17.77;11.65;;;;;;;13.20;60.82;98899.59;4967999;28;20030;-67
2021/09/09 02:51:41;;;;;;;19.35;11.98;;;;;;;13.19;60.81;98896.00;4967990;28;20031;-67
2021/09/09 02:54:06;;;;;;;17.92;11.77;;;;;;;13.18;60.95;98901.84;4965288;28;20032;-67
2021/09/09 02:56:32;;;;;;;17.13;11.73;;;;;;;13.19;60.85;98895.22;4967337;28;20074;-68
2021/09/09 02:58:58;;;;;;;16.88;11.63;;;;;;;13.18;60.78;98890.81;4967488;28;20015;-68
2021/09/09 03:01:25;;;;;;;18.10;11.55;;;;;;;13.18;60.91;98890.81;4967102;28;20142;-67
2021/09/09 03:03:50;;;;;;;17.42;11.82;;;;;;;13.18;61.33;98891.63;4966853;28;20062;-68
2021/09/09 03:06:16;;;;;;;18.73;12.15;;;;;;;13.18;61.14;98896.31;4965626;28;20070;-68
2021/09/09 03:08:41;;;;;;;19.58;12.00;;;;;;;13.16;60.90;98896.63;4966257;28;20027;-67
2021/09/09 03:11:07;;;;;;;18.50;12.07;;;;;;;13.08;60.76;98887.13;4967056;28;20023;-68
2021/09/09 03:13:33;;;;;;;18.83;11.65;;;;;;;13.06;61.15;98889.34;4966229;28;20507;-67
2021/09/09 03:15:58;;;;;;;19.80;12.77;;;;;;;13.01;60.71;98883.13;4966196;28;20019;-67
2021/09/09 03:18:23;;;;;;;18.58;12.35;;;;;;;13.02;60.94;98882.00;4968884;28;20022;-67
2021/09/09 03:20:49;;;;;;;18.67;11.48;;;;;;;13.02;60.90;98882.81;4967299;28;20419;-67
2021/09/09 03:23:14;;;;;;;19.23;12.13;;;;;;;13.00;61.19;98890.56;4968906;28;20034;-68
2021/09/09 03:25:39;;;;;;;20.33;12.25;;;;;;;12.98;60.97;98887.28;4984307;28;20034;-68
2021/09/09 03:28:05;;;;;;;20.00;12.45;;;;;;;12.96;61.07;98884.03;4965815;28;20110;-67
2021/09/09 03:30:30;;;;;;;16.17;11.57;;;;;;;12.93;60.88;98890.97;4967222;28;20452;-68
2021/09/09 03:32:56;;;;;;;19.63;12.80;;;;;;;12.91;60.80;98890.44;4966386;28;20031;-68
2021/09/09 03:35:22;;;;;;;18.95;12.63;;;;;;;12.88;60.85;98882.78;4966690;28;20451;-68
2021/09/09 03:37:47;;;;;;;20.00;12.95;;;;;;;12.87;61.43;98886.66;4964994;28;20039;-68
2021/09/09 03:40:13;;;;;;;21.45;12.60;;;;;;;12.85;60.87;98888.06;4966336;28;20109;-68
2021/09/09 03:42:39;;;;;;;21.17;13.02;;;;;;;12.84;61.37;98884.50;4964913;28;20027;-68
2021/09/09 03:45:05;;;;;;;24.85;14.20;;;;;;;12.83;61.09;98884.81;4965958;28;20037;-67
2021/09/09 03:47:31;;;;;;;22.92;13.80;;;;;;;12.79;60.94;98890.91;4966796;28;20051;-68
2021/09/09 03:49:56;;;;;;;24.73;14.65;;;;;;;12.76;61.44;98890.69;4966387;28;20027;-67
2021/09/09 03:52:22;;;;;;;20.40;13.70;;;;;;;12.74;61.29;98885.50;4968958;28;20430;-68
2021/09/09 03:54:47;;;;;;;19.58;13.02;;;;;;;12.73;61.54;98883.03;4968792;28;20118;-67
2021/09/09 03:57:12;;;;;;;23.15;13.02;;;;;;;12.71;61.29;98883.34;4968129;28;20086;-67
2021/09/09 03:59:38;;;;;;;22.52;13.95;;;;;;;12.70;61.31;98881.72;4967421;28;20131;-67
2021/09/09 04:02:03;;;;;;;21.63;13.93;;;;;;;12.71;61.64;98883.34;4966108;28;20125;-67
2021/09/09 04:04:30;;;;;;;22.80;14.00;;;;;;;12.71;61.30;98877.00;4968802;28;20088;-68
2021/09/09 04:06:57;;;;;;;18.95;12.63;;;;;;;12.69;61.07;98874.56;4966456;28;20102;-67
2021/09/09 04:09:22;;;;;;;19.65;13.43;;;;;;;12.69;61.59;98874.56;4966149;28;20118;-67
2021/09/09 04:11:48;;;;;;;20.45;13.27;;;;;;;12.67;61.32;98876.81;4972021;28;20445;-68
2021/09/09 04:14:13;;;;;;;21.60;14.35;;;;;;;12.66;61.14;98875.16;4971978;28;20027;-67
2021/09/09 04:16:39;;;;;;;19.90;12.48;;;;;;;12.63;61.43;98873.81;4971923;28;20501;-67
2021/09/09 04:19:04;;;;;;;21.80;13.63;;;;;;;12.61;61.09;98878.00;4971551;28;20081;-67
2021/09/09 04:21:30;;;;;;;19.35;13.05;;;;;;;12.59;61.15;98874.72;4972258;28;20038;-67
2021/09/09 04:23:55;;;;;;;22.30;13.15;;;;;;;12.50;60.99;98880.91;4971939;28;20035;-68
2021/09/09 04:26:21;;;;;;;23.88;13.98;;;;;;;12.48;61.59;98869.38;4972019;28;20027;-68
2021/09/09 04:28:46;;;;;;;29.63;15.75;;;;;;;12.46;61.57;98873.56;4974746;28;20031;-67
2021/09/09 04:31:11;;;;;;;24.67;14.80;;;;;;;12.42;61.42;98876.09;4976046;28;20150;-68
2021/09/09 04:33:37;;;;;;;20.58;13.50;;;;;;;12.41;61.53;98870.88;4975738;28;20062;-68
2021/09/09 04:36:03;;;;;;;19.42;13.18;;;;;;;12.39;61.17;98873.94;4975366;28;20447;-67
2021/09/09 04:38:28;;;;;;;22.67;13.38;;;;;;;12.39;61.20;98879.44;4975716;28;20030;-67
2021/09/09 04:40:54;;;;;;;20.20;12.55;;;;;;;12.39;61.70;98876.69;4974836;28;20470;-67
2021/09/09 04:43:19;;;;;;;21.35;13.20;;;;;;;12.36;61.41;98869.03;4974880;28;20034;-67
2021/09/09 04:45:44;;;;;;;20.83;13.23;;;;;;;12.38;61.55;98874.22;4975542;28;20085;-67
2021/09/09 04:48:10;;;;;;;24.58;13.32;;;;;;;12.39;61.48;98871.19;4975548;28;20186;-68
2021/09/09 04:50:35;;;;;;;21.85;14.05;;;;;;;12.39;61.53;98867.59;4974755;28;20023;-67
2021/09/09 04:53:01;;;;;;;30.65;15.80;;;;;;;12.38;61.92;98875.06;4975662;28;20472;-67
2021/09/09 04:55:26;;;;;;;29.73;16.83;;;;;;;12.41;61.47;98874.47;4975499;28;20563;-67
2021/09/09 04:57:51;;;;;;;27.05;15.77;;;;;;;12.39;61.92;98870.34;4975231;28;20026;-67
2021/09/09 05:00:17;;;;;;;24.63;16.17;;;;;;;12.41;61.67;98871.72;4974919;28;20031;-67
2021/09/09 05:02:42;;;;;;;23.05;14.02;;;;;;;12.47;61.93;98870.50;4975447;28;20350;-66
2021/09/09 05:05:08;;;;;;;21.63;13.15;;;;;;;12.48;62.36;98869.38;4974999;28;20042;-66
2021/09/09 05:07:34;;;;;;;19.42;12.15;;;;;;;12.50;61.90;98878.16;4975357;28;20185;-67
2021/09/09 05:10:01;;;;;;;18.48;11.00;;;;;;;12.51;61.84;98873.47;4989634;28;20472;-67
2021/09/09 05:12:26;;;;;;;17.60;10.73;;;;;;;12.51;62.03;98860.53;4974878;28;20109;-67
2021/09/09 05:14:52;;;;;;;16.13;11.00;;;;;;;12.56;62.49;98854.13;4974803;28;20114;-67
2021/09/09 05:17:17;;;;;;;17.80;11.95;;;;;;;12.63;62.82;98851.81;4975301;28;20023;-68
2021/09/09 05:19:43;;;;;;;19.27;11.75;;;;;;;12.70;62.88;98856.09;4974678;28;20475;-67
2021/09/09 05:22:08;;;;;;;19.20;12.30;;;;;;;12.77;62.79;98853.78;4974658;28;20030;-67
2021/09/09 05:24:33;;;;;;;19.45;11.95;;;;;;;12.84;62.95;98850.66;4974997;28;20058;-67
2021/09/09 05:26:59;;;;;;;18.17;11.40;;;;;;;12.91;63.00;98843.66;4975350;28;20021;-67
2021/09/09 05:29:24;;;;;;;17.92;12.23;;;;;;;12.98;62.88;98837.75;4974958;28;20042;-67
2021/09/09 05:31:49;;;;;;;18.77;11.90;;;;;;;13.06;62.88;98839.78;4975009;28;20037;-67
2021/09/09 05:34:15;;;;;;;20.60;12.10;;;;;;;13.14;62.80;98843.78;4974912;28;20031;-67
2021/09/09 05:36:40;;;;;;;18.42;12.35;;;;;;;13.22;63.10;98839.53;4974685;28;20019;-66
2021/09/09 05:39:06;;;;;;;17.95;12.05;;;;;;;13.28;63.26;98838.28;4974436;28;20371;-67
2021/09/09 05:41:31;;;;;;;17.00;11.82;;;;;;;13.34;63.08;98845.31;4971256;28;20378;-67
2021/09/09 05:43:56;;;;;;;17.10;10.98;;;;;;;13.40;63.25;98835.84;4974728;28;20022;-67
2021/09/09 05:46:23;;;;;;;19.75;11.85;;;;;;;13.48;63.10;98837.09;4974216;28;20043;-67
2021/09/09 05:48:48;;;;;;;21.88;12.15;;;;;;;13.54;63.31;98830.34;4973515;28;20355;-67
2021/09/09 05:51:14;;;;;;;18.42;11.98;;;;;;;13.62;63.39;98825.25;4973343;28;20019;-67
2021/09/09 05:53:39;;;;;;;19.08;11.75;;;;;;;13.69;63.42;98828.41;4973356;28;20045;-67
2021/09/09 05:56:04;;;;;;;18.35;12.02;;;;;;;13.75;63.33;98818.09;4973642;28;20030;-67
2021/09/09 05:58:30;;;;;;;17.98;11.63;;;;;;;13.84;63.67;98827.28;4973376;28;20031;-67
2021/09/09 06:00:55;;;;;;;17.85;11.00;;;;;;;13.90;63.40;98820.53;4973194;28;20446;-67
2021/09/09 06:03:25;;;;;;;18.02;11.90;;;;;;;13.98;63.37;98817.03;4973807;28;20483;-67
2021/09/09 06:05:53;;;;;;;18.65;11.23;;;;;;;14.09;63.71;98828.66;4973779;28;20077;-67
2021/09/09 06:08:19;;;;;;;17.70;11.02;;;;;;;14.18;63.21;98819.66;4973329;28;20031;-68
2021/09/09 06:10:44;;;;;;;18.38;11.38;;;;;;;14.29;63.91;98823.78;4973132;28;20045;-67
2021/09/09 06:13:10;;;;;;;15.32;9.80;;;;;;;14.40;63.76;98807.81;4973424;28;20502;-67
2021/09/09 06:15:36;;;;;;;16.27;9.85;;;;;;;14.50;63.63;98813.06;4973520;28;20046;-67
2021/09/09 06:18:01;;;;;;;15.02;9.68;;;;;;;14.61;63.20;98821.94;4973663;28;20027;-67
2021/09/09 06:20:27;;;;;;;19.25;9.90;;;;;;;14.70;63.30;98820.03;4973240;28;20027;-67
2021/09/09 06:22:52;;;;;;;12.65;8.20;;;;;;;14.83;63.44;98826.66;4972898;28;20030;-67
2021/09/09 06:25:18;;;;;;;14.00;9.93;;;;;;;14.94;63.38;98816.13;4973271;28;20435;-68
2021/09/09 06:27:44;;;;;;;14.25;9.38;;;;;;;15.07;63.37;98816.38;4973454;28;20097;-67
2021/09/09 06:30:09;;;;;;;15.27;11.15;;;;;;;15.18;63.10;98818.53;4972838;28;20038;-67
2021/09/09 06:32:35;;;;;;;17.02;10.43;;;;;;;15.31;63.08;98816.78;4973140;28;20121;-67
2021/09/09 06:35:00;;;;;;;15.65;10.15;;;;;;;15.44;62.87;98823.34;4973063;28;20022;-67
2021/09/09 06:37:26;;;;;;;19.65;14.43;;;;;;;15.56;63.06;98819.16;4973059;28;20022;-67
2021/09/09 06:39:51;;;;;;;18.42;11.95;;;;;;;15.68;62.65;98824.91;4972512;28;20035;-67
2021/09/09 06:42:16;;;;;;;17.15;11.05;;;;;;;15.77;62.76;98822.94;4973119;28;20042;-68
2021/09/09 06:44:42;;;;;;;20.25;13.65;;;;;;;15.85;62.78;98821.34;4973074;28;20063;-68
2021/09/09 06:47:07;;;;;;;13.88;8.07;;;;;;;15.97;62.79;98820.75;4933062;28;1178310;-67
2021/09/09 06:49:33;;;;;;;10.80;6.47;;;;;;;16.06;62.08;98810.50;4973134;28;20038;-67
2021/09/09 06:51:58;;;;;;;12.55;6.90;;;;;;;16.18;61.76;98822.88;4973418;28;20022;-67
2021/09/09 06:54:23;;;;;;;12.57;7.18;;;;;;;16.27;61.70;98812.63;4973638;28;20060;-68
2021/09/09 06:56:49;;;;;;;14.90;6.95;;;;;;;16.39;61.40;98822.22;4973607;28;20030;-68
2021/09/09 06:59:15;;;;;;;11.57;6.78;;;;;;;16.49;61.02;98819.13;4973375;28;20022;-68
2021/09/09 07:01:40;;;;;;;10.60;6.22;;;;;;;16.58;60.74;98828.22;4973658;28;20046;-67
2021/09/09 07:04:06;;;;;;;14.55;7.00;;;;;;;16.66;60.37;98823.84;4973308;28;20460;-67
2021/09/09 07:06:31;;;;;;;12.02;6.60;;;;;;;16.75;59.98;98821.03;4973456;28;20041;-68
2021/09/09 07:08:57;;;;;;;16.98;6.97;;;;;;;16.83;59.32;98828.53;4971605;28;20050;-67
2021/09/09 07:11:22;;;;;;;15.73;7.20;;;;;;;16.93;59.31;98830.94;4972599;28;20022;-68
2021/09/09 07:13:47;;;;;;;13.55;7.20;;;;;;;17.02;59.06;98830.13;4970777;28;20062;-67
2021/09/09 07:16:13;;;;;;;11.93;7.35;;;;;;;17.11;59.04;98828.97;4973505;28;20033;-68
2021/09/09 07:18:38;;;;;;;11.05;7.13;;;;;;;17.21;58.98;98835.28;4964132;28;20027;-66
2021/09/09 07:21:05;;;;;;;11.07;6.63;;;;;;;17.31;58.84;98828.59;4972194;28;20141;-67
2021/09/09 07:23:30;;;;;;;11.63;6.72;;;;;;;17.39;58.90;98838.81;4970900;28;20105;-67
2021/09/09 07:25:55;;;;;;;11.90;7.18;;;;;;;17.49;58.74;98821.81;4971187;28;20105;-67
2021/09/09 07:28:21;;;;;;;14.88;7.82;;;;;;;17.60;58.58;98830.56;4966603;28;20138;-67
2021/09/09 07:30:46;;;;;;;11.75;7.03;;;;;;;17.68;58.19;98818.59;4970869;28;20117;-67
2021/09/09 07:33:12;;;;;;;11.45;6.90;;;;;;;17.77;58.17;98823.28;4970503;28;20049;-67
2021/09/09 07:35:38;;;;;;;13.50;7.22;;;;;;;17.85;58.02;98826.00;4970648;28;20027;-67
2021/09/09 07:38:03;;;;;;;14.70;7.40;;;;;;;17.95;57.66;98824.78;4970325;28;20030;-67
2021/09/09 07:40:29;;;;;;;11.43;6.32;;;;;;;18.06;57.67;98824.44;4968647;28;20065;-67
2021/09/09 07:42:54;;;;;;;11.32;6.22;;;;;;;18.15;57.05;98823.22;4970783;28;20037;-66
2021/09/09 07:45:19;;;;;;;10.15;6.60;;;;;;;18.22;56.85;98828.25;4970743;28;20090;-67
2021/09/09 07:47:45;;;;;;;14.35;6.68;;;;;;;18.30;56.67;98826.53;4971345;28;20126;-67
2021/09/09 07:50:11;;;;;;;11.45;6.93;;;;;;;18.39;56.93;98835.63;4972362;28;20411;-67
2021/09/09 07:52:40;;;;;;;11.52;6.13;;;;;;;18.49;55.97;98822.47;4971440;28;20034;-67
2021/09/09 07:55:06;;;;;;;9.82;6.40;;;;;;;18.57;55.81;98827.94;4971349;28;20027;-68
2021/09/09 07:57:32;;;;;;;9.55;5.97;;;;;;;18.67;55.67;98826.69;4971895;28;20106;-67
2021/09/09 07:59:57;;;;;;;12.73;6.95;;;;;;;18.74;55.90;98829.75;4972259;28;20459;-68
2021/09/09 08:02:22;;;;;;;11.45;6.63;;;;;;;18.82;55.65;98824.44;4971386;28;20038;-68
2021/09/09 08:04:49;;;;;;;15.02;6.45;;;;;;;18.90;55.75;98824.34;4972595;28;20078;-67
2021/09/09 08:07:14;;;;;;;9.95;6.70;;;;;;;18.99;55.68;98824.28;4970993;28;20408;-68
2021/09/09 08:09:40;;;;;;;9.95;6.18;;;;;;;19.12;55.38;98833.47;4972246;28;20035;-67
2021/09/09 08:12:06;;;;;;;9.52;6.10;;;;;;;19.19;55.24;98835.69;4972100;28;20019;-68
2021/09/09 08:14:32;;;;;;;9.43;6.43;;;;;;;19.28;55.05;98833.63;4972364;28;20038;-68
2021/09/09 08:16:58;;;;;;;10.73;6.38;;;;;;;19.38;54.92;98834.31;4972165;28;20023;-68
2021/09/09 08:19:23;;;;;;;9.35;6.25;;;;;;;19.45;54.36;98835.38;4972374;28;20015;-68
2021/09/09 08:21:48;;;;;;;8.95;5.45;;;;;;;19.55;54.25;98836.06;4972020;28;20471;-68
2021/09/09 08:24:14;;;;;;;10.77;5.55;;;;;;;19.63;54.10;98837.91;4971999;28;20023;-68
2021/09/09 08:26:39;;;;;;;14.02;6.15;;;;;;;19.70;53.89;98827.00;4972384;28;20034;-68
2021/09/09 08:29:05;;;;;;;8.68;5.50;;;;;;;19.79;53.76;98836.06;4972013;28;20029;-68
2021/09/09 08:31:31;;;;;;;11.90;5.40;;;;;;;19.89;53.55;98829.22;4972314;28;20034;-68
2021/09/09 08:33:57;;;;;;;8.55;5.25;;;;;;;19.97;52.66;98829.47;4971614;28;20113;-67
2021/09/09 08:36:22;;;;;;;8.57;5.18;;;;;;;20.03;52.28;98837.22;4971745;28;20106;-67
2021/09/09 08:38:49;;;;;;;8.32;5.15;;;;;;;20.10;51.58;98827.47;4971355;28;20077;-67
2021/09/09 08:41:15;;;;;;;7.43;5.13;;;;;;;20.17;49.91;98836.03;4971332;28;20476;-67
2021/09/09 08:43:41;;;;;;;6.78;4.95;;;;;;;20.20;50.09;98824.19;4970772;28;20026;-68
2021/09/09 08:46:11;;;;;;;9.20;4.88;;;;;;;20.25;50.01;98825.91;4971635;28;20043;-68
2021/09/09 08:48:37;;;;;;;;;;;;;;;20.29;50.22;98826.84;4971866;28;20386;-66
2021/09/09 08:51:02;;;;;;;8.90;4.75;;;;;;;20.33;50.41;98824.97;4971497;28;19921;-67
2021/09/09 08:53:30;;;;;;;14.30;5.30;;;;;;;20.38;48.41;98831.09;4971118;28;20027;-67
2021/09/09 08:55:55;;;;;;;8.73;5.20;;;;;;;20.45;49.10;98830.50;4971489;28;20035;-67
2021/09/09 08:58:21;;;;;;;7.28;4.90;;;;;;;20.52;48.81;98827.94;4971208;28;20049;-68
2021/09/09 09:01:05;;;;;;;7.32;4.30;;;;;;;20.58;46.31;98819.31;4971061;28;20117;-67
2021/09/09 09:03:46;;;;;;;5.93;4.45;;;;;;;20.65;46.32;98823.09;4970695;28;20035;-68
2021/09/09 09:06:26;;;;;;;8.65;4.55;;;;;;;20.71;46.12;98822.84;4969536;28;20042;-68
2021/09/09 09:08:59;;;;;;;8.85;4.95;;;;;;;20.77;47.11;98815.91;4984401;28;20398;-68
2021/09/09 09:11:28;;;;;;;7.03;5.03;;;;;;;20.85;46.55;98814.09;4968929;28;20030;-67
2021/09/09 09:13:54;;;;;;;6.65;4.50;;;;;;;20.95;46.17;98810.81;4970687;28;20027;-67
2021/09/09 09:16:21;;;;;;;8.98;4.82;;;;;;;21.00;46.57;98807.72;4973458;28;20034;-67
2021/09/09 09:18:47;;;;;;;9.63;4.43;;;;;;;21.07;44.72;98802.34;4973479;28;20030;-67
2021/09/09 09:21:14;;;;;;;7.80;4.90;;;;;;;21.12;45.35;98804.88;4973267;28;20027;-66
2021/09/09 09:23:57;;;;;;;6.53;4.90;;;;;;;21.21;45.70;98801.91;4973272;28;20031;-67
2021/09/09 09:26:22;;;;;;;7.25;4.18;;;;;;;21.27;44.49;98803.25;4973751;28;20034;-68
2021/09/09 09:28:56;;;;;;;9.27;4.32;;;;;;;21.33;44.19;98814.97;4974778;28;20030;-67
2021/09/09 09:31:24;;;;;;;6.22;5.07;;;;;;;21.38;43.36;98808.28;4974689;28;20030;-67
2021/09/09 09:34:07;;;;;;;11.95;5.47;;;;;;;21.46;43.66;98812.88;4974236;28;20030;-66
2021/09/09 09:36:38;;;;;;;5.20;4.05;;;;;;;21.52;43.57;98805.88;4974822;28;20038;-67
2021/09/09 09:39:09;;;;;;;6.88;4.80;;;;;;;21.59;43.58;98807.22;4974488;28;20427;-67
2021/09/09 09:41:36;;;;;;;6.78;4.50;;;;;;;21.64;43.05;98810.56;4974425;28;20471;-67
2021/09/09 09:44:06;;;;;;;9.27;4.10;;;;;;;21.69;42.37;98801.91;4974298;28;20030;-68
2021/09/09 09:46:36;;;;;;;6.13;4.43;;;;;;;21.73;42.97;98796.41;4974099;28;20051;-68
2021/09/09 09:49:24;;;;;;;6.22;4.88;;;;;;;21.82;41.54;98798.97;4973713;28;20098;-67
2021/09/09 09:51:50;;;;;;;6.35;4.75;;;;;;;21.86;42.17;98799.88;4974544;28;20061;-67
2021/09/09 09:54:17;;;;;;;9.25;5.72;;;;;;;21.91;41.13;98809.97;4972766;28;20399;-67
2021/09/09 09:56:45;;;;;;;9.88;5.05;;;;;;;21.91;41.51;98801.59;4972685;28;20089;-67
2021/09/09 09:59:11;;;;;;;11.77;6.30;;;;;;;21.93;42.27;98796.47;4973515;28;20034;-67
2021/09/09 10:01:37;;;;;;;7.75;4.07;;;;;;;22.00;41.91;98796.63;4974043;28;20062;-67
2021/09/09 10:04:09;;;;;;;8.30;4.75;;;;;;;22.07;42.04;98795.97;4974162;28;20479;-67
2021/09/09 10:06:35;;;;;;;9.48;4.30;;;;;;;22.13;41.47;98798.09;4973671;28;20069;-67
2021/09/09 10:09:04;;;;;;;10.75;4.97;;;;;;;22.19;41.47;98790.25;4973384;28;20034;-67
2021/09/09 10:11:30;;;;;;;10.27;4.63;;;;;;;22.25;41.66;98788.75;4973637;28;20027;-68
2021/09/09 10:13:58;;;;;;;9.40;4.97;;;;;;;22.31;41.72;98789.28;4973441;28;20057;-67
2021/09/09 10:16:27;;;;;;;10.15;4.68;;;;;;;22.36;41.24;98788.19;4973504;28;20482;-68
2021/09/09 10:18:52;;;;;;;5.63;4.32;;;;;;;22.41;41.36;98782.31;4973768;28;20500;-66
2021/09/09 10:21:39;;;;;;;9.48;5.35;;;;;;;22.49;41.42;98784.09;4973345;28;20023;-67
2021/09/09 10:24:17;;;;;;;9.18;4.22;;;;;;;22.55;40.89;98784.59;4973970;28;20404;-67
2021/09/09 10:26:44;;;;;;;8.40;5.00;;;;;;;22.56;40.76;98778.66;4972794;28;20137;-68
2021/09/09 10:29:43;;;;;;;7.82;4.65;;;;;;;22.59;40.95;98766.75;4973164;28;20074;-67
2021/09/09 10:32:28;;;;;;;;;;;;;;;22.65;40.89;98766.41;4974066;28;20027;-67
2021/09/09 10:35:16;;;;;;;7.35;4.68;;;;;;;22.72;41.31;98758.16;4972897;28;19918;-67
2021/09/09 10:37:56;;;;;;;6.18;4.57;;;;;;;22.79;40.63;98761.09;4973261;28;20177;-67
2021/09/09 10:40:28;;;;;;;7.50;4.65;;;;;;;22.83;40.97;98761.97;4972119;28;20239;-67
2021/09/09 10:42:53;;;;;;;9.35;5.35;;;;;;;22.88;40.30;98767.25;4971198;28;20030;-67
2021/09/09 10:45:34;;;;;;;7.05;4.68;;;;;;;22.94;40.79;98750.19;4971519;28;20045;-67
2021/09/09 10:48:04;;;;;;;6.45;4.50;;;;;;;23.00;40.03;98757.09;4969275;28;20444;-67
2021/09/09 10:50:31;;;;;;;7.07;4.93;;;;;;;23.03;39.60;98757.13;4971059;28;20114;-68
2021/09/09 10:53:04;;;;;;;8.48;5.10;;;;;;;23.10;40.70;98750.84;4969947;28;20027;-68
2021/09/09 10:55:33;;;;;;;7.63;4.90;;;;;;;23.21;40.15;98748.25;4966868;28;20547;-67
2021/09/09 10:58:19;;;;;;;8.88;4.40;;;;;;;23.29;39.36;98754.78;4969645;28;20162;-67
2021/09/09 11:00:51;;;;;;;6.97;4.35;;;;;;;23.29;38.80;98757.59;4970094;28;20034;-66
2021/09/09 11:03:42;;;;;;;10.55;4.35;;;;;;;23.32;38.84;98751.25;4970590;28;20138;-66
2021/09/09 11:06:10;;;;;;;6.40;4.22;;;;;;;23.33;37.74;98747.25;4971342;28;20027;-66
2021/09/09 11:08:37;;;;;;;6.00;4.38;;;;;;;23.32;38.12;98748.44;4970391;28;20093;-66
2021/09/09 11:11:05;;;;;;;5.45;4.50;;;;;;;23.38;38.77;98741.34;4970848;28;20117;-67
2021/09/09 11:13:35;;;;;;;9.63;5.00;;;;;;;23.47;38.73;98750.25;4970517;28;20039;-67
2021/09/09 11:16:01;;;;;;;5.90;3.97;;;;;;;23.53;38.63;98745.16;4970369;28;20586;-67
2021/09/09 11:18:31;;;;;;;10.10;4.32;;;;;;;23.59;38.72;98748.44;4970246;28;20114;-65
2021/09/09 11:21:09;;;;;;;9.60;4.88;;;;;;;23.66;39.14;98742.94;4970253;28;20026;-67
2021/09/09 11:23:36;;;;;;;7.70;4.90;;;;;;;23.74;38.85;98743.84;4971256;28;20023;-65